Time;durP1;ratioP1;P1;durP2;ratioP2;P2;SDS_P1;SDS_P2;PMS_P1;PMS_P2;Temp;Humidity;BMP_temperature;BMP_pressure;BME280_temperature;BME280_humidity;BME280_pressure;Samples;Min_cycle;Max_cycle;Signal;HPM_P1;HPM_P2
2022/11/16 00:01:01;;;;;;;3.90;3.60;;;;;;;11.28;80.62;99598.34;5058538;28;20631;-79
2022/11/16 00:03:28;;;;;;;4.27;3.97;;;;;;;11.33;80.68;99596.41;5058297;28;20228;-81
2022/11/16 00:05:58;;;;;;;6.63;3.87;;;;;;;11.32;81.14;99592.09;5059365;28;20201;-81
2022/11/16 00:08:25;;;;;;;4.40;4.00;;;;;;;11.39;80.84;99597.09;5058728;28;20205;-81
2022/11/16 00:10:52;;;;;;;4.40;3.80;;;;;;;11.37;80.59;99593.69;5058490;28;20257;-81
2022/11/16 00:13:19;;;;;;;4.00;3.60;;;;;;;11.41;80.84;99593.50;5058407;28;20271;-79
2022/11/16 00:15:54;;;;;;;3.70;3.40;;;;;;;11.44;81.76;99561.22;5058599;28;20209;-80
2022/11/16 00:18:22;;;;;;;4.93;3.33;;;;;;;11.45;82.17;99529.78;5058634;28;20267;-80
2022/11/16 00:20:48;;;;;;;3.43;3.23;;;;;;;11.48;82.81;99500.94;5058344;28;20226;-80
2022/11/16 00:23:15;;;;;;;4.03;3.30;;;;;;;11.46;82.64;99488.84;5058298;28;20252;-81
2022/11/16 00:25:41;;;;;;;3.87;3.43;;;;;;;11.48;83.16;99471.34;5058927;28;20210;-80
2022/11/16 00:28:07;;;;;;;3.50;3.20;;;;;;;11.48;82.81;99469.56;5057903;28;20202;-81
2022/11/16 00:30:34;;;;;;;3.57;3.27;;;;;;;11.44;83.16;99462.75;5057754;28;20233;-78
2022/11/16 00:33:01;;;;;;;4.17;3.87;;;;;;;11.42;83.19;99468.97;5058126;28;20213;-80
2022/11/16 00:35:29;;;;;;;5.17;3.90;;;;;;;11.37;83.24;99456.06;5058178;28;20215;-80
2022/11/16 00:37:55;;;;;;;3.40;3.20;;;;;;;11.41;83.57;99441.13;5057958;28;20209;-80
2022/11/16 00:40:22;;;;;;;4.00;3.70;;;;;;;11.41;83.53;99448.97;5057239;28;20233;-80
2022/11/16 00:42:48;;;;;;;4.00;3.57;;;;;;;11.37;83.30;99456.06;5058130;28;20600;-80
2022/11/16 00:45:15;;;;;;;4.53;3.80;;;;;;;11.33;83.42;99452.69;5057944;28;20201;-81
2022/11/16 00:47:41;;;;;;;3.50;3.20;;;;;;;11.32;83.31;99442.34;5057706;28;20201;-80
2022/11/16 00:50:08;;;;;;;4.30;4.00;;;;;;;11.36;83.54;99435.22;5057115;28;20286;-81
2022/11/16 00:52:36;;;;;;;4.67;3.47;;;;;;;11.33;83.01;99441.41;5057912;28;20825;-81
2022/11/16 00:55:02;;;;;;;3.90;3.60;;;;;;;11.29;83.17;99437.22;5057734;28;20670;-81
2022/11/16 00:57:29;;;;;;;3.87;3.57;;;;;;;11.27;83.49;99434.66;5056966;28;20210;-81
2022/11/16 00:59:55;;;;;;;3.93;3.63;;;;;;;11.30;83.63;99425.88;5057238;28;20226;-82
2022/11/16 01:02:21;;;;;;;4.07;3.30;;;;;;;11.30;83.93;99418.88;5056991;28;20236;-80
2022/11/16 01:04:48;;;;;;;4.00;3.57;;;;;;;11.27;84.25;99405.91;5057658;28;20217;-81
2022/11/16 01:07:14;;;;;;;3.70;3.40;;;;;;;11.28;84.32;99401.56;5057727;28;20207;-78
2022/11/16 01:09:42;;;;;;;3.73;3.53;;;;;;;11.28;84.85;99397.19;5057180;28;20213;-81
2022/11/16 01:12:09;;;;;;;3.60;3.33;;;;;;;11.28;84.86;99383.28;5056924;28;20210;-81
2022/11/16 01:14:36;;;;;;;3.60;3.17;;;;;;;11.22;85.10;99373.91;5056944;28;20214;-81
2022/11/16 01:17:03;;;;;;;4.30;3.90;;;;;;;11.22;84.88;99365.19;5056752;28;20209;-80
2022/11/16 01:19:30;;;;;;;5.37;3.60;;;;;;;11.22;84.71;99373.91;5056686;28;20219;-81
2022/11/16 01:21:57;;;;;;;3.73;3.53;;;;;;;11.18;85.01;99366.22;5056945;28;20206;-81
2022/11/16 01:24:24;;;;;;;4.13;3.57;;;;;;;11.11;85.16;99350.81;5056525;28;20203;-81
2022/11/16 01:26:55;;;;;;;4.07;3.67;;;;;;;11.11;84.87;99350.81;5057316;28;20205;-81
2022/11/16 01:29:22;;;;;;;4.10;3.27;;;;;;;11.08;85.00;99353.56;5057000;28;20236;-78
2022/11/16 01:31:48;;;;;;;3.43;3.13;;;;;;;11.10;84.78;99346.50;5056135;28;20213;-81
2022/11/16 01:34:15;;;;;;;4.37;3.47;;;;;;;11.09;84.55;99339.56;5056955;28;20210;-82
2022/11/16 01:36:41;;;;;;;4.07;3.67;;;;;;;11.12;84.61;99347.28;5056213;28;20205;-82
2022/11/16 01:39:08;;;;;;;3.67;3.37;;;;;;;11.12;84.87;99342.06;5056961;28;20260;-82
2022/11/16 01:41:34;;;;;;;3.30;3.10;;;;;;;11.09;84.99;99328.28;5056207;28;20233;-81
2022/11/16 01:44:04;;;;;;;4.07;3.67;;;;;;;11.18;84.86;99333.16;5056657;28;20232;-81
2022/11/16 01:46:31;;;;;;;4.13;3.50;;;;;;;11.12;84.32;99351.69;5056741;28;20212;-79
2022/11/16 01:49:03;;;;;;;4.20;3.90;;;;;;;11.10;84.16;99349.13;5056631;28;20209;-81
2022/11/16 01:51:30;;;;;;;3.80;3.50;;;;;;;11.09;84.59;99347.41;5056392;28;20234;-81
2022/11/16 01:53:59;;;;;;;4.03;3.73;;;;;;;11.08;84.61;99350.06;5056458;28;20674;-81
2022/11/16 01:56:25;;;;;;;4.67;4.33;;;;;;;11.10;84.25;99349.13;5056976;28;20205;-79
2022/11/16 01:58:52;;;;;;;4.40;4.03;;;;;;;11.15;82.73;99371.59;5060932;28;20214;-81
2022/11/16 02:01:20;;;;;;;4.07;3.77;;;;;;;11.11;82.80;99396.97;5056021;28;20355;-81
2022/11/16 02:03:47;;;;;;;4.27;3.97;;;;;;;11.08;82.68;99395.34;5056661;28;20225;-81
2022/11/16 02:06:33;;;;;;;4.63;4.23;;;;;;;11.10;82.75;99395.28;5056470;28;20209;-81
2022/11/16 02:12:14;;;;;;;4.20;3.90;;;;;;;11.09;82.23;99404.84;5056110;28;20285;-80
2022/11/16 02:14:58;;;;;;;4.30;4.00;;;;;;;11.12;82.39;99402.16;5056549;28;20217;-81
2022/11/16 02:17:36;;;;;;;5.50;5.00;;;;;;;11.11;81.47;99420.47;5055759;28;20209;-82
2022/11/16 02:20:25;;;;;;;4.73;4.33;;;;;;;11.08;81.29;99433.63;5055495;28;20229;-81
2022/11/16 02:23:09;;;;;;;4.97;4.57;;;;;;;11.07;81.45;99438.00;5056000;28;20230;-81
2022/11/16 02:25:45;;;;;;;4.60;4.00;;;;;;;11.08;81.94;99431.03;5056119;28;20209;-80
2022/11/16 02:28:30;;;;;;;4.50;4.10;;;;;;;11.10;82.09;99419.63;5056314;28;20206;-81
2022/11/16 02:31:03;;;;;;;5.43;4.13;;;;;;;11.10;81.65;99419.63;5055379;28;20237;-81
2022/11/16 02:33:35;;;;;;;4.53;4.13;;;;;;;11.08;81.71;99416.22;5056436;28;20202;-81
2022/11/16 02:36:05;;;;;;;5.20;4.70;;;;;;;11.08;82.09;99411.00;5054815;28;20205;-81
2022/11/16 02:38:36;;;;;;;5.00;4.57;;;;;;;11.05;81.58;99418.94;5056122;28;20210;-81
2022/11/16 02:41:07;;;;;;;5.80;4.00;;;;;;;11.03;82.04;99410.31;5055397;28;20242;-81
2022/11/16 02:43:38;;;;;;;4.47;4.07;;;;;;;10.99;82.45;99398.28;5056012;28;20703;-81
2022/11/16 02:46:12;;;;;;;4.03;3.63;;;;;;;10.98;83.09;99386.16;5055979;28;20210;-81
2022/11/16 02:48:43;;;;;;;10.80;4.57;;;;;;;10.98;83.37;99375.72;5055985;28;20207;-82
2022/11/16 02:51:11;;;;;;;4.33;4.03;;;;;;;10.97;83.41;99357.47;5056303;28;20237;-81
2022/11/16 02:53:50;;;;;;;4.07;3.73;;;;;;;10.92;84.19;99350.69;5056418;28;20199;-81
2022/11/16 02:56:16;;;;;;;4.17;3.50;;;;;;;10.75;85.37;99319.13;5057888;28;20228;-81
2022/11/16 02:58:43;;;;;;;4.47;3.53;;;;;;;10.81;85.66;99294.56;5061529;28;20207;-81
2022/11/16 03:01:14;;;;;;;4.93;3.83;;;;;;;10.85;85.84;99273.50;5058863;28;20230;-81
2022/11/16 03:03:45;;;;;;;3.83;3.53;;;;;;;10.88;85.95;99269.91;5068385;28;20649;-81
2022/11/16 03:06:17;;;;;;;4.10;3.80;;;;;;;10.90;86.24;99258.50;5067053;28;20218;-81
2022/11/16 03:08:50;;;;;;;4.27;3.87;;;;;;;10.93;85.98;99253.16;5066210;28;20217;-81
2022/11/16 03:14:18;;;;;;;5.33;3.93;;;;;;;10.95;85.73;99263.53;5040396;28;20246;-81
2022/11/16 03:16:49;;;;;;;4.87;4.47;;;;;;;10.90;85.55;99263.72;5051273;28;20209;-82
2022/11/16 03:19:19;;;;;;;4.83;4.20;;;;;;;10.92;85.57;99268.88;5055820;28;20217;-81
2022/11/16 03:21:49;;;;;;;4.37;4.07;;;;;;;10.94;85.63;99282.72;5055090;28;20239;-80
2022/11/16 03:24:16;;;;;;;3.97;3.67;;;;;;;10.89;85.87;99277.69;5055791;28;20225;-82
2022/11/16 03:26:49;;;;;;;3.83;3.53;;;;;;;10.85;86.72;99270.03;5056582;28;20205;-82
2022/11/16 03:29:23;;;;;;;4.30;3.90;;;;;;;10.86;86.78;99256.06;5056458;28;20205;-82
2022/11/16 03:31:56;;;;;;;4.17;3.70;;;;;;;10.85;86.74;99249.16;5055226;28;20205;-81
2022/11/16 03:34:28;;;;;;;4.30;3.90;;;;;;;10.79;86.75;99250.22;5056748;28;20209;-81
2022/11/16 03:36:56;;;;;;;4.30;3.90;;;;;;;10.79;86.91;99236.34;5056712;28;20232;-79
2022/11/16 03:39:28;;;;;;;4.80;4.40;;;;;;;10.74;87.51;99228.66;5055763;28;20213;-80
2022/11/16 03:41:59;;;;;;;5.20;4.70;;;;;;;10.78;86.54;99237.22;5054931;28;20210;-81
2022/11/16 03:44:27;;;;;;;5.10;4.60;;;;;;;10.77;86.88;99238.16;5055256;28;20240;-79
2022/11/16 03:46:55;;;;;;;5.03;4.40;;;;;;;10.73;87.16;99240.03;5055795;28;20203;-80
2022/11/16 03:49:22;;;;;;;5.23;4.73;;;;;;;10.74;87.33;99233.88;5058570;28;20213;-79
2022/11/16 03:51:49;;;;;;;5.13;4.00;;;;;;;10.76;86.69;99239.91;5059249;28;20206;-81
2022/11/16 03:54:16;;;;;;;6.50;4.30;;;;;;;10.78;86.76;99251.13;5059321;28;20638;-81
2022/11/16 03:56:42;;;;;;;4.87;4.50;;;;;;;10.74;86.72;99254.78;5059670;28;20205;-80
2022/11/16 03:59:09;;;;;;;5.20;4.80;;;;;;;10.75;87.13;99238.22;5059386;28;20209;-80
2022/11/16 04:01:35;;;;;;;4.90;4.40;;;;;;;10.71;87.08;99239.25;5058781;28;20231;-81
2022/11/16 04:04:03;;;;;;;4.50;4.20;;;;;;;10.70;87.46;99235.78;5059432;28;20233;-79
2022/11/16 04:25:48;;;;;;;6.07;5.47;;;;;;;10.63;85.95;99277.84;5058384;28;20201;-81
2022/11/16 04:28:16;;;;;;;5.83;5.37;;;;;;;10.64;85.89;99267.31;5058493;28;20206;-81
2022/11/16 04:39:00;;;;;;;6.07;5.57;;;;;;;10.61;86.69;99266.63;5057893;28;20202;-79
2022/11/16 04:44:11;;;;;;;6.47;5.87;;;;;;;10.60;86.94;99262.28;5058264;28;20783;-81
2022/11/16 04:49:22;;;;;;;5.70;5.27;;;;;;;10.63;86.70;99249.13;5057940;28;20257;-80
2022/11/16 04:51:49;;;;;;;5.40;5.00;;;;;;;10.65;86.64;99256.00;5058079;28;20223;-81
2022/11/16 04:54:16;;;;;;;5.93;5.40;;;;;;;10.63;86.61;99251.75;5057519;28;20212;-81
2022/11/16 04:56:42;;;;;;;6.63;6.13;;;;;;;10.58;87.00;99259.72;5057492;28;20236;-80
2022/11/16 04:59:09;;;;;;;7.10;6.50;;;;;;;10.53;87.03;99249.47;5056682;28;20212;-81
2022/11/16 05:04:19;;;;;;;7.27;6.57;;;;;;;10.57;86.68;99251.97;5057457;28;20231;-81
2022/11/16 05:06:46;;;;;;;8.20;7.50;;;;;;;10.53;86.55;99262.53;5057348;28;20209;-81
2022/11/16 05:09:15;;;;;;;9.80;8.80;;;;;;;10.56;86.81;99250.25;5056804;28;20248;-82
2022/11/16 05:11:41;;;;;;;10.93;9.97;;;;;;;10.57;86.29;99252.81;5057226;28;20256;-81
2022/11/16 05:14:08;;;;;;;11.27;10.10;;;;;;;10.59;86.52;99269.28;5057486;28;20206;-79
2022/11/16 05:16:34;;;;;;;10.70;9.80;;;;;;;10.55;86.45;99269.47;5058827;28;20211;-80
2022/11/16 05:21:45;;;;;;;11.57;10.53;;;;;;;10.46;87.69;99248.00;5056448;28;20920;-82
2022/11/16 05:26:57;;;;;;;11.67;10.57;;;;;;;10.43;88.54;99214.22;5057259;28;20219;-80
2022/11/16 05:29:23;;;;;;;13.17;11.90;;;;;;;10.40;88.52;99205.66;5058399;28;20214;-81
2022/11/16 05:31:50;;;;;;;13.07;11.97;;;;;;;10.36;88.95;99196.25;5056562;28;20226;-81
2022/11/16 05:34:16;;;;;;;13.87;12.60;;;;;;;10.34;89.08;99194.53;5056851;28;20206;-81
2022/11/16 05:36:42;;;;;;;13.40;12.17;;;;;;;10.32;89.68;99178.09;5056634;28;20222;-80
2022/11/16 05:39:10;;;;;;;13.03;11.80;;;;;;;10.38;89.49;99170.94;5056807;28;20205;-82
2022/11/16 05:41:37;;;;;;;12.67;11.63;;;;;;;10.30;89.99;99173.84;5055686;28;20233;-81
2022/11/16 05:44:05;;;;;;;13.90;12.43;;;;;;;10.24;90.34;99154.03;5056179;28;20229;-81
2022/11/16 05:46:31;;;;;;;14.33;13.03;;;;;;;10.23;90.62;99147.13;5056426;28;20221;-81
2022/11/16 05:48:58;;;;;;;14.43;13.13;;;;;;;10.27;90.36;99138.28;5056703;28;20208;-81
2022/11/16 05:51:24;;;;;;;15.33;14.03;;;;;;;10.22;90.76;99144.56;5056261;28;20230;-81
2022/11/16 05:53:51;;;;;;;16.83;14.33;;;;;;;10.14;91.42;99134.44;5061250;28;20206;-81
2022/11/16 05:56:17;;;;;;;16.70;14.97;;;;;;;10.07;91.82;99130.38;5057454;28;20213;-82
2022/11/16 05:58:46;;;;;;;16.70;14.97;;;;;;;10.08;91.70;99121.63;5056753;28;20198;-80
2022/11/16 06:01:14;;;;;;;15.90;14.40;;;;;;;10.09;91.80;99125.97;5056580;28;20240;-82
2022/11/16 06:03:40;;;;;;;14.93;13.63;;;;;;;10.14;91.45;99116.19;5057419;28;20225;-81
2022/11/16 06:06:07;;;;;;;17.07;15.37;;;;;;;10.10;91.56;99135.47;5057262;28;20205;-81
2022/11/16 06:08:33;;;;;;;16.80;15.43;;;;;;;10.10;91.14;99133.69;5056968;28;20214;-82
2022/11/16 06:11:02;;;;;;;17.53;15.93;;;;;;;10.11;90.79;99152.81;5057888;28;20225;-82
2022/11/16 06:13:28;;;;;;;17.73;16.20;;;;;;;10.02;90.79;99158.38;5057481;28;20202;-82
2022/11/16 06:15:55;;;;;;;17.73;16.23;;;;;;;9.97;91.34;99148.13;5056454;28;20213;-82
2022/11/16 06:18:23;;;;;;;18.53;16.93;;;;;;;9.99;90.64;99154.13;5056914;28;20212;-81
2022/11/16 06:20:49;;;;;;;18.20;16.40;;;;;;;9.96;90.67;99159.44;5056486;28;20225;-82
2022/11/16 06:23:16;;;;;;;19.47;16.17;;;;;;;9.87;91.09;99149.34;5056674;28;20679;-81
2022/11/16 06:25:42;;;;;;;18.23;16.73;;;;;;;9.84;91.11;99150.31;5056990;28;20209;-81
2022/11/16 06:28:10;;;;;;;19.10;17.33;;;;;;;9.87;90.67;99145.00;5056674;28;20205;-80
2022/11/16 06:30:38;;;;;;;19.30;17.47;;;;;;;9.86;90.70;99156.31;5055995;28;20255;-80
2022/11/16 06:33:05;;;;;;;18.67;16.93;;;;;;;9.76;91.46;99139.31;5056690;28;20210;-79
2022/11/16 06:35:32;;;;;;;18.13;16.47;;;;;;;9.71;91.47;99139.50;5056396;28;20204;-82
2022/11/16 06:37:59;;;;;;;18.03;16.33;;;;;;;9.75;90.84;99148.03;5056953;28;20222;-79
2022/11/16 06:40:25;;;;;;;17.20;15.67;;;;;;;9.74;90.84;99152.41;5055632;28;20616;-82
2022/11/16 06:42:52;;;;;;;17.40;15.90;;;;;;;9.72;91.25;99155.97;5056254;28;20209;-79
2022/11/16 06:45:18;;;;;;;17.33;15.73;;;;;;;9.70;91.15;99155.19;5057047;28;20229;-80
2022/11/16 06:47:45;;;;;;;18.50;16.77;;;;;;;9.67;91.62;99139.66;5057633;28;20205;-81
2022/11/16 06:50:11;;;;;;;16.87;15.47;;;;;;;9.62;91.83;99134.63;5057047;28;20693;-82
2022/11/16 06:52:39;;;;;;;17.03;15.33;;;;;;;9.64;91.79;99134.56;5057117;28;20210;-82
2022/11/16 06:55:06;;;;;;;17.53;15.93;;;;;;;9.65;91.73;99131.91;5054961;28;20691;-83
2022/11/16 06:57:34;;;;;;;19.73;17.60;;;;;;;9.64;91.69;99143.22;5056159;28;20205;-81
2022/11/16 07:00:00;;;;;;;18.23;16.60;;;;;;;9.52;92.24;99128.88;5055732;28;20313;-82
2022/11/16 07:02:27;;;;;;;20.23;18.50;;;;;;;9.50;92.69;99109.84;5056102;28;20207;-82
2022/11/16 07:04:53;;;;;;;26.87;17.07;;;;;;;9.48;92.89;99101.25;5056829;28;20241;-82
2022/11/16 07:07:19;;;;;;;18.60;16.80;;;;;;;9.47;92.99;99099.53;5056333;28;20205;-81
2022/11/16 07:09:47;;;;;;;18.70;16.93;;;;;;;9.40;93.03;99085.06;5055608;28;20226;-82
2022/11/16 07:12:14;;;;;;;18.07;16.57;;;;;;;9.39;93.32;99091.16;5055408;28;20221;-82
2022/11/16 07:14:41;;;;;;;19.80;17.73;;;;;;;9.40;93.33;99077.25;5056512;28;20204;-81
2022/11/16 07:17:07;;;;;;;18.20;16.47;;;;;;;9.40;93.07;99082.44;5056377;28;20211;-82
2022/11/16 07:19:35;;;;;;;20.00;18.13;;;;;;;9.36;93.20;99077.41;5055681;28;20216;-82
2022/11/16 07:22:02;;;;;;;18.23;16.43;;;;;;;9.32;93.51;99066.25;5054023;28;20291;-83
2022/11/16 07:24:28;;;;;;;19.00;17.20;;;;;;;9.28;93.53;99072.47;5058788;28;20228;-79
2022/11/16 07:26:56;;;;;;;19.70;17.90;;;;;;;9.17;94.11;99056.38;5059510;28;20447;-83
2022/11/16 07:29:23;;;;;;;20.03;17.97;;;;;;;9.13;94.48;99048.66;5059972;28;20206;-82
2022/11/16 07:31:49;;;;;;;19.50;17.47;;;;;;;9.13;94.28;99050.44;5058864;28;20312;-84
2022/11/16 07:34:16;;;;;;;20.77;18.67;;;;;;;9.11;94.18;99057.44;5059438;28;20672;-82
2022/11/16 07:36:42;;;;;;;19.50;17.60;;;;;;;9.13;93.94;99050.44;5059484;28;20237;-83
2022/11/16 07:39:09;;;;;;;19.13;17.27;;;;;;;9.12;93.84;99067.81;5059012;28;20210;-82
2022/11/16 07:41:37;;;;;;;19.00;17.30;;;;;;;9.13;93.84;99074.69;5058908;28;20241;-82
2022/11/16 07:44:05;;;;;;;19.63;17.83;;;;;;;9.15;93.14;99090.28;5059396;28;20221;-82
2022/11/16 07:46:31;;;;;;;20.40;18.60;;;;;;;9.14;92.90;99099.00;5059218;28;20212;-80
2022/11/16 07:48:58;;;;;;;19.67;17.77;;;;;;;9.07;92.88;99103.53;5059033;28;20209;-81
2022/11/16 07:51:24;;;;;;;21.13;19.00;;;;;;;9.04;93.02;99108.88;5059006;28;20232;-81
2022/11/16 07:53:53;;;;;;;22.63;19.83;;;;;;;8.96;93.52;99116.09;5059010;28;20209;-79
2022/11/16 07:56:19;;;;;;;21.87;19.57;;;;;;;8.97;93.03;99115.19;5058946;28;20213;-81
2022/11/16 07:58:45;;;;;;;21.93;19.67;;;;;;;8.94;93.66;99112.69;5058435;28;20209;-79
2022/11/16 08:01:15;;;;;;;23.37;20.50;;;;;;;8.95;92.87;99130.00;5058588;28;20236;-82
2022/11/16 08:03:43;;;;;;;22.00;19.87;;;;;;;8.86;93.84;99125.09;5059021;28;20209;-80
2022/11/16 08:06:13;;;;;;;21.40;19.27;;;;;;;8.89;93.44;99123.25;5058528;28;20588;-81
2022/11/16 08:08:40;;;;;;;23.67;20.77;;;;;;;8.90;93.41;99127.56;5059495;28;20213;-81
2022/11/16 08:11:08;;;;;;;23.07;20.63;;;;;;;8.91;93.20;99134.44;5059105;28;20232;-83
2022/11/16 08:13:36;;;;;;;21.43;19.43;;;;;;;8.92;93.28;99127.50;5059287;28;20215;-82
2022/11/16 08:16:04;;;;;;;23.40;20.50;;;;;;;8.92;93.43;99137.91;5059369;28;20707;-81
2022/11/16 08:18:32;;;;;;;23.30;20.87;;;;;;;8.91;93.83;99128.41;5059307;28;20584;-80
2022/11/16 08:20:59;;;;;;;22.63;20.37;;;;;;;8.92;93.64;99125.75;5058604;28;20241;-83
2022/11/16 08:23:25;;;;;;;22.03;19.00;;;;;;;8.90;93.11;99137.97;5058782;28;20263;-82
2022/11/16 08:25:52;;;;;;;23.20;20.80;;;;;;;8.82;93.42;99142.56;5058379;28;20228;-83
2022/11/16 08:28:18;;;;;;;23.40;20.93;;;;;;;8.87;92.60;99156.28;5059652;28;20209;-82
2022/11/16 08:30:45;;;;;;;21.40;19.17;;;;;;;8.85;91.55;99185.84;5058040;28;20225;-82
2022/11/16 08:33:11;;;;;;;20.83;18.93;;;;;;;8.81;90.60;99212.88;5058199;28;20259;-84
2022/11/16 08:35:39;;;;;;;21.83;19.40;;;;;;;8.80;90.61;99234.56;5058546;28;20201;-84
2022/11/16 08:38:05;;;;;;;21.03;18.67;;;;;;;8.74;91.21;99227.81;5056210;28;20209;-81
2022/11/16 08:40:32;;;;;;;22.40;20.03;;;;;;;8.69;91.83;99211.50;5056810;28;20233;-81
2022/11/16 08:42:59;;;;;;;23.80;21.40;;;;;;;8.63;92.39;99196.94;5057620;28;20266;-80
2022/11/16 08:45:26;;;;;;;26.50;23.92;;;;;;;8.69;92.76;99186.31;5056754;28;20514;-83
2022/11/16 08:47:52;;;;;;;27.30;22.00;;;;;;;8.71;93.32;99175.88;5058211;28;20210;-82
2022/11/16 08:50:19;;;;;;;23.87;20.27;;;;;;;8.74;93.56;99171.44;5058033;28;20603;-82
2022/11/16 08:52:48;;;;;;;22.90;20.67;;;;;;;8.73;93.04;99181.88;5059220;28;20210;-83
2022/11/16 08:55:17;;;;;;;22.53;20.27;;;;;;;8.72;93.12;99186.25;5058261;28;20237;-83
2022/11/16 08:57:43;;;;;;;24.53;22.03;;;;;;;8.75;93.35;99185.28;5058315;28;20553;-84
2022/11/16 09:00:11;;;;;;;23.90;20.93;;;;;;;8.75;93.46;99180.94;5058736;28;20676;-84
2022/11/16 09:02:37;;;;;;;22.00;19.83;;;;;;;8.83;92.23;99192.84;5059438;28;20201;-83
2022/11/16 09:05:04;;;;;;;22.57;19.90;;;;;;;8.85;91.82;99212.72;5059260;28;20229;-85
2022/11/16 09:07:31;;;;;;;23.00;20.77;;;;;;;8.86;91.75;99219.63;5058758;28;20209;-84
2022/11/16 09:09:59;;;;;;;21.53;19.57;;;;;;;8.83;91.91;99219.72;5058375;28;20225;-80
2022/11/16 09:12:25;;;;;;;20.27;18.57;;;;;;;8.72;92.12;99227.88;5056215;28;20209;-83
2022/11/16 09:14:52;;;;;;;21.60;19.63;;;;;;;8.77;92.66;99211.28;5057088;28;20204;-84
2022/11/16 09:17:18;;;;;;;22.10;19.97;;;;;;;8.77;92.68;99208.66;5056764;28;20216;-83
2022/11/16 09:19:45;;;;;;;22.73;20.63;;;;;;;8.72;92.64;99199.25;5057033;28;20214;-83
2022/11/16 09:22:11;;;;;;;21.03;19.23;;;;;;;8.73;92.35;99205.31;5056356;28;20201;-84
2022/11/16 09:24:37;;;;;;;20.93;19.03;;;;;;;8.73;92.59;99198.34;5056333;28;20236;-83
2022/11/16 09:27:05;;;;;;;21.10;19.10;;;;;;;8.78;91.52;99213.81;5056511;28;20620;-83
2022/11/16 09:29:32;;;;;;;22.27;19.83;;;;;;;8.70;92.13;99214.06;5057746;28;20705;-82
2022/11/16 09:31:59;;;;;;;22.00;19.70;;;;;;;8.68;92.53;99204.56;5056152;28;20205;-83
2022/11/16 09:34:25;;;;;;;21.07;19.17;;;;;;;8.66;92.66;99201.19;5056765;28;20212;-84
2022/11/16 09:36:52;;;;;;;23.30;21.17;;;;;;;8.67;92.86;99195.94;5057143;28;20201;-83
2022/11/16 09:39:18;;;;;;;26.25;24.05;;;;;;;8.65;92.51;99207.28;5055555;28;20447;-84
2022/11/16 09:41:58;;;;;;;23.03;21.03;;;;;;;8.62;92.49;99207.38;5057274;28;20648;-85
2022/11/16 09:44:37;;;;;;;21.40;19.43;;;;;;;8.65;91.63;99218.53;5058404;28;20212;-83
2022/11/16 09:47:09;;;;;;;24.77;20.97;;;;;;;8.67;91.11;99231.50;5058549;28;20209;-83
2022/11/16 09:49:39;;;;;;;22.33;20.20;;;;;;;8.66;91.25;99240.19;5064275;28;20225;-82
2022/11/16 09:52:13;;;;;;;22.23;20.20;;;;;;;8.70;90.98;99242.69;5054893;28;20213;-84
2022/11/16 09:54:44;;;;;;;20.90;18.97;;;;;;;8.69;90.66;99259.16;5055685;28;20205;-83
2022/11/16 09:57:16;;;;;;;22.60;20.50;;;;;;;8.67;90.74;99266.16;5055582;28;20209;-81
2022/11/16 09:59:48;;;;;;;21.90;19.90;;;;;;;8.67;90.85;99254.91;5054752;28;20676;-82
2022/11/16 10:02:22;;;;;;;21.97;19.77;;;;;;;8.66;91.55;99248.88;5054068;28;20209;-82
2022/11/16 10:04:53;;;;;;;24.03;21.73;;;;;;;8.55;92.28;99230.97;5055986;28;20225;-83
2022/11/16 10:07:23;;;;;;;22.17;19.97;;;;;;;8.49;92.92;99199.13;5054781;28;20208;-82
2022/11/16 10:09:50;;;;;;;22.87;20.90;;;;;;;8.55;92.51;99202.38;5054684;28;20229;-81
2022/11/16 10:12:21;;;;;;;21.67;19.63;;;;;;;8.45;92.99;99197.50;5055494;28;20220;-84
2022/11/16 10:15:10;;;;;;;22.60;20.07;;;;;;;8.46;93.43;99173.19;5054748;28;20209;-83
2022/11/16 10:17:49;;;;;;;22.97;20.77;;;;;;;8.50;93.48;99167.00;5055145;28;20204;-82
2022/11/16 10:20:33;;;;;;;22.60;20.40;;;;;;;8.55;93.48;99168.56;5054588;28;20241;-82
2022/11/16 10:23:10;;;;;;;20.40;18.43;;;;;;;8.58;93.01;99167.59;5054692;28;20723;-80
2022/11/16 10:25:42;;;;;;;22.43;20.17;;;;;;;8.58;92.87;99183.19;5054734;28;20221;-82
2022/11/16 10:28:40;;;;;;;23.03;20.67;;;;;;;8.52;93.38;99173.00;5055072;28;20208;-81
2022/11/16 10:31:18;;;;;;;20.73;18.93;;;;;;;8.51;93.46;99153.09;5045816;28;20240;-81
2022/11/16 10:33:48;;;;;;;21.00;19.00;;;;;;;8.51;92.56;99168.72;5054569;28;20682;-81
2022/11/16 10:36:16;;;;;;;21.57;19.27;;;;;;;8.48;93.21;99171.38;5055572;28;20213;-80
2022/11/16 10:38:44;;;;;;;21.30;19.07;;;;;;;8.51;92.74;99173.91;5055622;28;20220;-82
2022/11/16 10:41:18;;;;;;;20.67;18.67;;;;;;;8.48;92.91;99177.47;5054804;28;20240;-82
2022/11/16 10:43:45;;;;;;;19.87;18.17;;;;;;;8.49;93.33;99163.53;5054802;28;20585;-83
2022/11/16 10:46:19;;;;;;;19.33;17.63;;;;;;;8.52;93.03;99170.38;5055036;28;20229;-82
2022/11/16 10:48:55;;;;;;;18.87;17.17;;;;;;;8.48;92.71;99168.78;5055357;28;20577;-82
2022/11/16 10:51:22;;;;;;;19.70;17.90;;;;;;;8.42;93.16;99156.81;5054712;28;20742;-83
2022/11/16 10:53:48;;;;;;;19.10;17.33;;;;;;;8.38;93.44;99152.59;5054064;28;20209;-81
2022/11/16 10:56:20;;;;;;;20.53;18.57;;;;;;;8.41;93.71;99142.13;5053581;28;20397;-80
2022/11/16 10:58:56;;;;;;;17.67;16.27;;;;;;;8.41;93.00;99146.47;5054982;28;20215;-81
2022/11/16 11:01:36;;;;;;;19.37;17.57;;;;;;;8.43;92.68;99170.69;5059081;28;20251;-82
2022/11/16 11:04:18;;;;;;;18.47;16.57;;;;;;;8.42;92.23;99168.97;5058517;28;20213;-82
2022/11/16 11:06:46;;;;;;;18.20;16.50;;;;;;;8.35;92.98;99179.53;5059304;28;20232;-83
2022/11/16 11:09:23;;;;;;;18.63;17.13;;;;;;;8.28;93.01;99175.41;5058843;28;20668;-81
2022/11/16 11:14:58;;;;;;;17.47;15.53;;;;;;;8.20;93.33;99156.59;5058541;28;20208;-81
2022/11/16 11:17:26;;;;;;;18.33;16.40;;;;;;;8.19;93.57;99146.25;5060015;28;20284;-82
2022/11/16 11:19:58;;;;;;;18.90;17.10;;;;;;;8.25;93.82;99154.72;5058548;28;20233;-82
2022/11/16 11:22:25;;;;;;;18.27;16.47;;;;;;;8.21;93.44;99150.50;5058114;28;20278;-81
2022/11/16 11:24:51;;;;;;;18.13;16.53;;;;;;;8.25;93.81;99144.31;5058202;28;20299;-79
2022/11/16 11:27:23;;;;;;;19.17;17.57;;;;;;;8.16;93.84;99134.19;5058126;28;20581;-81
2022/11/16 11:29:53;;;;;;;17.63;16.13;;;;;;;8.17;94.03;99133.31;5057613;28;20263;-81
2022/11/16 11:32:21;;;;;;;17.97;16.17;;;;;;;8.18;93.44;99134.16;5057641;28;20248;-81
2022/11/16 11:34:52;;;;;;;17.97;16.37;;;;;;;8.21;93.56;99134.91;5058188;28;20212;-82
2022/11/16 11:37:22;;;;;;;20.10;18.30;;;;;;;8.19;94.08;99128.91;5057128;28;20197;-81
2022/11/16 11:40:03;;;;;;;17.60;16.13;;;;;;;8.27;93.58;99131.28;5055223;28;20228;-81
2022/11/16 11:42:30;;;;;;;18.07;16.37;;;;;;;8.25;93.74;99140.88;5055922;28;20683;-81
2022/11/16 11:45:00;;;;;;;18.30;16.47;;;;;;;8.25;93.46;99135.69;5058154;28;20205;-80
2022/11/16 11:47:37;;;;;;;19.07;17.13;;;;;;;8.27;93.58;99131.28;5058331;28;20585;-82
2022/11/16 11:50:13;;;;;;;18.37;16.57;;;;;;;8.29;93.72;99129.50;5057832;28;20232;-82
2022/11/16 11:52:46;;;;;;;17.50;16.10;;;;;;;8.34;93.52;99136.25;5057509;28;20197;-81
2022/11/16 11:55:16;;;;;;;16.80;15.40;;;;;;;8.35;92.89;99158.75;5058655;28;20205;-82
2022/11/16 11:57:46;;;;;;;17.87;16.30;;;;;;;8.30;93.21;99157.16;5058695;28;20209;-83
2022/11/16 12:00:14;;;;;;;18.07;16.37;;;;;;;8.35;94.33;99139.69;5058281;28;20244;-82
2022/11/16 12:02:56;;;;;;;19.70;17.93;;;;;;;8.38;94.79;99123.13;5059628;28;20220;-82
2022/11/16 12:05:35;;;;;;;16.83;15.43;;;;;;;8.38;95.48;99084.13;5058993;28;20228;-81
2022/11/16 12:08:24;;;;;;;16.73;15.13;;;;;;;8.48;95.38;99078.66;5058904;28;20205;-82
2022/11/16 12:10:55;;;;;;;17.30;15.80;;;;;;;8.51;95.65;99069.88;5058355;28;20229;-84
2022/11/16 12:13:47;;;;;;;17.53;16.00;;;;;;;8.57;95.81;99067.06;5059497;28;20205;-84
2022/11/16 12:16:22;;;;;;;17.33;15.93;;;;;;;8.61;94.54;99104.25;5058884;28;20201;-83
2022/11/16 12:19:11;;;;;;;16.80;15.13;;;;;;;8.67;93.45;99114.44;5059510;28;20211;-83
2022/11/16 12:21:49;;;;;;;16.40;14.93;;;;;;;8.70;93.23;99130.81;5058357;28;20767;-83
2022/11/16 12:24:28;;;;;;;16.13;14.60;;;;;;;8.79;93.49;99141.81;5066133;28;20209;-81
2022/11/16 12:27:06;;;;;;;16.30;14.90;;;;;;;8.79;92.45;99157.44;5063900;28;20717;-81